Time;durP1;ratioP1;P1;durP2;ratioP2;P2;SDS_P1;SDS_P2;PMS_P1;PMS_P2;Temp;Humidity;BMP_temperature;BMP_pressure;BME280_temperature;BME280_humidity;BME280_pressure;Samples;Min_cycle;Max_cycle;Signal;HPM_P1;HPM_P2
2022/08/17 00:00:33;;;;;;;8.88;7.82;;;;;;;26.27;46.70;100898.28;4976246;28;20096;-67
2022/08/17 00:03:20;;;;;;;9.10;8.25;;;;;;;26.24;46.73;100894.09;4971469;28;20027;-68
2022/08/17 00:05:50;;;;;;;9.43;8.45;;;;;;;26.24;46.71;100888.75;4974845;28;20042;-70
2022/08/17 00:08:21;;;;;;;10.63;8.27;;;;;;;26.25;46.52;100892.28;4973877;28;20046;-68
2022/08/17 00:10:47;;;;;;;9.90;8.55;;;;;;;26.24;46.79;100886.09;4966223;28;20050;-65
2022/08/17 00:13:20;;;;;;;9.23;8.32;;;;;;;26.22;46.74;100888.13;4973729;28;20022;-66
2022/08/17 00:15:46;;;;;;;9.27;8.30;;;;;;;26.23;47.06;100884.44;4974093;28;20034;-66
2022/08/17 00:18:12;;;;;;;10.40;9.32;;;;;;;26.21;46.92;100869.59;4978503;28;20046;-66
2022/08/17 00:20:38;;;;;;;9.25;8.35;;;;;;;26.25;47.02;100879.75;4973906;28;20081;-69
2022/08/17 00:23:10;;;;;;;9.67;8.67;;;;;;;26.16;47.09;100853.28;4970829;28;20435;-66
2022/08/17 00:25:36;;;;;;;9.90;8.65;;;;;;;26.21;47.01;100865.06;4969581;28;20272;-66
2022/08/17 00:28:01;;;;;;;10.38;9.38;;;;;;;26.20;47.21;100865.25;4976298;28;20047;-66
2022/08/17 00:30:27;;;;;;;9.85;8.85;;;;;;;26.19;47.32;100861.75;4971170;28;20554;-70
2022/08/17 00:32:53;;;;;;;10.20;9.05;;;;;;;26.21;47.11;100864.25;4971116;28;20030;-67
2022/08/17 00:35:22;;;;;;;9.88;8.93;;;;;;;26.20;47.02;100867.94;4961996;28;20379;-66
2022/08/17 00:37:49;;;;;;;10.55;9.55;;;;;;;26.18;47.09;100861.94;4966752;28;20046;-67
2022/08/17 00:40:15;;;;;;;10.50;9.50;;;;;;;26.20;47.31;100859.91;4981458;28;20030;-67
2022/08/17 00:42:41;;;;;;;9.57;8.68;;;;;;;26.20;47.46;100852.75;4971871;28;20162;-66
2022/08/17 00:45:10;;;;;;;9.98;8.98;;;;;;;26.20;47.30;100859.91;4961918;28;20039;-68
2022/08/17 00:47:35;;;;;;;10.00;9.00;;;;;;;26.18;47.34;100857.41;4963809;28;20030;-66
2022/08/17 00:50:01;;;;;;;10.30;9.30;;;;;;;26.16;47.48;100856.78;4981075;28;20529;-66
2022/08/17 00:52:34;;;;;;;10.75;9.75;;;;;;;26.18;47.40;100857.41;4980064;28;20272;-66
2022/08/17 00:55:01;;;;;;;10.63;9.63;;;;;;;26.15;47.57;100849.78;4961944;28;20453;-67
2022/08/17 00:57:40;;;;;;;10.88;9.77;;;;;;;26.17;47.77;100857.59;4964804;28;20062;-65
2022/08/17 01:00:25;;;;;;;10.27;9.38;;;;;;;26.14;47.35;100849.97;4965863;28;20039;-66
2022/08/17 01:02:55;;;;;;;10.23;9.07;;;;;;;26.16;47.33;100855.94;4965105;28;20042;-70
2022/08/17 01:05:24;;;;;;;11.43;9.57;;;;;;;26.18;47.62;100853.94;4970195;28;20034;-66
2022/08/17 01:07:50;;;;;;;11.38;9.68;;;;;;;26.15;47.47;100852.47;4984534;28;20034;-67
2022/08/17 01:10:18;;;;;;;10.30;9.30;;;;;;;26.12;47.61;100847.47;4984378;28;20157;-67
2022/08/17 01:12:44;;;;;;;10.13;9.10;;;;;;;26.15;47.39;100854.28;4979894;28;20023;-67
2022/08/17 01:15:10;;;;;;;11.18;9.43;;;;;;;26.15;47.90;100854.28;4984309;28;20040;-71
2022/08/17 01:17:35;;;;;;;10.65;9.57;;;;;;;26.10;47.63;100838.78;4984595;28;20038;-72
2022/08/17 01:20:01;;;;;;;10.67;9.67;;;;;;;26.15;47.88;100847.13;4981196;28;20467;-65
2022/08/17 01:22:26;;;;;;;10.57;9.57;;;;;;;26.10;47.87;100840.63;4967638;28;20360;-65
2022/08/17 01:24:59;;;;;;;10.48;9.38;;;;;;;26.13;47.77;100837.63;4973866;28;20069;-68
2022/08/17 01:27:25;;;;;;;11.30;9.90;;;;;;;26.12;47.77;100838.63;4967900;28;20503;-66
2022/08/17 01:29:57;;;;;;;10.75;9.40;;;;;;;26.13;47.73;100829.59;4978921;28;20045;-67
2022/08/17 01:32:24;;;;;;;10.65;9.65;;;;;;;26.12;47.86;100831.44;4975952;28;20027;-68
2022/08/17 01:34:51;;;;;;;10.20;9.20;;;;;;;26.10;48.12;100825.44;4965111;28;20728;-66
2022/08/17 01:37:19;;;;;;;10.02;9.07;;;;;;;26.09;48.00;100821.13;4964910;28;20085;-68
2022/08/17 01:39:52;;;;;;;10.82;9.82;;;;;;;26.11;47.86;100823.63;4969963;28;20033;-67
2022/08/17 01:42:18;;;;;;;10.63;8.95;;;;;;;26.11;48.00;100821.78;4978563;28;20038;-68
2022/08/17 01:44:43;;;;;;;10.93;9.80;;;;;;;26.07;47.95;100820.44;4965534;28;20049;-66
2022/08/17 01:47:08;;;;;;;10.32;9.25;;;;;;;26.10;48.20;100824.63;4983762;28;20022;-71
2022/08/17 01:49:33;;;;;;;10.70;9.57;;;;;;;26.11;47.89;100823.63;4969182;28;20426;-66
2022/08/17 01:52:05;;;;;;;10.27;9.27;;;;;;;26.08;47.88;100813.28;4972729;28;20306;-65
2022/08/17 01:54:31;;;;;;;9.90;8.90;;;;;;;26.09;47.86;100818.44;4971318;28;20027;-71
2022/08/17 01:56:56;;;;;;;10.68;9.63;;;;;;;26.06;48.02;100814.28;4983513;28;20215;-69
2022/08/17 01:59:21;;;;;;;11.33;9.80;;;;;;;26.04;47.96;100810.13;4978996;28;20039;-66
2022/08/17 02:01:47;;;;;;;9.98;8.98;;;;;;;26.09;48.32;100823.78;4967874;28;20283;-66
2022/08/17 02:04:13;;;;;;;10.65;9.70;;;;;;;26.05;48.01;100811.78;4983348;28;20367;-67
2022/08/17 02:06:42;;;;;;;10.38;9.30;;;;;;;26.08;48.00;100814.09;4976352;28;20039;-67
2022/08/17 02:09:07;;;;;;;10.85;9.02;;;;;;;26.05;48.04;100811.78;4973679;28;20071;-67
2022/08/17 02:11:37;;;;;;;10.43;9.35;;;;;;;26.01;48.01;100799.78;4970289;28;20121;-67
2022/08/17 02:14:04;;;;;;;9.85;8.70;;;;;;;26.07;47.96;100809.75;4964329;28;20023;-69
2022/08/17 02:16:35;;;;;;;10.35;9.43;;;;;;;26.06;48.25;100816.97;4969377;28;20039;-66
2022/08/17 02:19:00;;;;;;;10.80;9.80;;;;;;;26.03;48.36;100805.81;4967110;28;20037;-66
2022/08/17 02:21:26;;;;;;;10.40;9.40;;;;;;;26.05;48.12;100804.59;4975944;28;20034;-67
2022/08/17 02:23:52;;;;;;;9.68;8.75;;;;;;;26.05;48.30;100815.28;4971633;28;20047;-68
2022/08/17 02:26:17;;;;;;;10.25;9.25;;;;;;;26.05;47.94;100806.44;4963685;28;20216;-65
2022/08/17 02:28:42;;;;;;;10.13;8.97;;;;;;;26.05;48.03;100811.78;4963680;28;20116;-66
2022/08/17 02:31:10;;;;;;;10.77;9.70;;;;;;;26.01;48.10;100800.66;4964226;28;20258;-67
2022/08/17 02:33:36;;;;;;;10.20;9.23;;;;;;;26.03;48.14;100801.28;4980846;28;20280;-67
2022/08/17 02:36:03;;;;;;;10.27;9.27;;;;;;;26.04;48.07;100805.63;4983028;28;20096;-66
2022/08/17 02:38:30;;;;;;;9.85;8.88;;;;;;;26.04;48.25;100802.09;4970027;28;20026;-66
2022/08/17 02:40:55;;;;;;;10.07;9.07;;;;;;;26.04;47.97;100797.63;4982109;28;20038;-67
2022/08/17 02:43:21;;;;;;;10.75;9.63;;;;;;;26.01;48.20;100791.78;4966657;28;20451;-66
2022/08/17 02:45:46;;;;;;;11.20;10.10;;;;;;;26.04;48.12;100799.44;4964217;28;20823;-66
2022/08/17 02:48:11;;;;;;;10.80;9.73;;;;;;;26.01;48.19;100795.31;4976892;28;20284;-66
2022/08/17 02:50:37;;;;;;;11.30;10.10;;;;;;;26.00;48.12;100795.47;4982911;28;20064;-71
2022/08/17 02:53:02;;;;;;;10.93;9.70;;;;;;;26.01;48.22;100795.31;4982882;28;20054;-71
2022/08/17 02:55:37;;;;;;;11.38;9.85;;;;;;;25.98;48.33;100787.66;4971862;28;20031;-69
2022/08/17 02:58:03;;;;;;;11.80;10.60;;;;;;;25.96;48.46;100789.66;4963577;28;20085;-71
2022/08/17 03:00:34;;;;;;;11.02;9.73;;;;;;;25.99;48.33;100788.47;4972061;28;20451;-69
2022/08/17 03:03:01;;;;;;;10.38;9.38;;;;;;;25.98;48.51;100784.16;4979537;28;20161;-67
2022/08/17 03:05:30;;;;;;;11.68;10.27;;;;;;;25.94;48.51;100778.28;4978175;28;20035;-67
2022/08/17 03:07:55;;;;;;;10.80;9.80;;;;;;;25.95;48.53;100787.97;4962907;28;20026;-65
2022/08/17 03:10:23;;;;;;;11.00;9.95;;;;;;;25.92;48.30;100782.16;4963487;28;20045;-69
2022/08/17 03:12:49;;;;;;;11.32;10.32;;;;;;;25.94;48.39;100774.81;4967704;28;20022;-68
2022/08/17 03:15:18;;;;;;;11.23;10.10;;;;;;;25.92;48.66;100768.81;4972376;28;20037;-69
2022/08/17 03:17:44;;;;;;;11.27;10.23;;;;;;;25.91;48.50;100775.97;4982391;28;20038;-68
2022/08/17 03:20:10;;;;;;;11.60;10.40;;;;;;;25.89;48.63;100773.47;4963032;28;20737;-70
2022/08/17 03:22:38;;;;;;;10.93;9.82;;;;;;;25.89;48.38;100780.66;4962768;28;20065;-67
2022/08/17 03:25:05;;;;;;;11.60;10.40;;;;;;;25.90;48.88;100771.66;4962915;28;20425;-67
2022/08/17 03:27:30;;;;;;;11.02;10.00;;;;;;;25.88;48.76;100771.84;4962930;28;20030;-67
2022/08/17 03:29:56;;;;;;;11.50;10.40;;;;;;;25.87;48.81;100774.69;4970432;28;20030;-66
2022/08/17 03:32:21;;;;;;;11.55;10.05;;;;;;;25.92;48.54;100784.84;4975774;28;20037;-67
2022/08/17 03:34:47;;;;;;;11.00;9.90;;;;;;;25.89;48.63;100784.16;4962854;28;20089;-67
2022/08/17 03:37:12;;;;;;;11.18;10.02;;;;;;;25.88;48.81;100776.31;4964558;28;20363;-67
2022/08/17 03:39:37;;;;;;;11.60;10.50;;;;;;;25.88;48.62;100776.31;4974323;28;20463;-72
2022/08/17 03:42:11;;;;;;;11.25;10.13;;;;;;;25.91;48.83;100786.66;4966844;28;20280;-67
2022/08/17 03:44:36;;;;;;;11.27;10.20;;;;;;;25.86;48.75;100778.34;4969605;28;20057;-67
2022/08/17 03:57:57;;;;;;;10.07;9.07;;;;;;;25.85;48.75;100796.22;4982049;28;20128;-66
2022/08/17 04:00:23;;;;;;;11.02;10.02;;;;;;;25.87;48.89;100807.53;4981633;28;20062;-66
2022/08/17 04:02:48;;;;;;;11.30;10.18;;;;;;;25.85;49.08;100801.56;4968509;28;20034;-67
2022/08/17 04:05:14;;;;;;;11.20;10.20;;;;;;;25.88;48.64;100813.69;4962275;28;20040;-67
2022/08/17 04:07:40;;;;;;;10.77;9.68;;;;;;;25.86;48.85;100815.72;4962472;28;20387;-65
2022/08/17 04:10:05;;;;;;;11.35;10.25;;;;;;;25.86;49.15;100832.56;4962404;28;20114;-72
2022/08/17 04:12:43;;;;;;;10.60;9.50;;;;;;;25.82;48.94;100836.63;4977513;28;20486;-69
2022/08/17 04:15:08;;;;;;;11.00;9.98;;;;;;;25.84;48.89;100847.13;4981974;28;20370;-66
2022/08/17 04:17:34;;;;;;;10.95;9.85;;;;;;;25.82;49.04;100851.78;4980305;28;20030;-65
2022/08/17 04:19:59;;;;;;;10.93;9.87;;;;;;;25.77;49.06;100847.00;4962691;28;20077;-68
2022/08/17 04:22:25;;;;;;;11.30;10.23;;;;;;;25.80;49.17;100843.97;4962415;28;20259;-67
2022/08/17 04:24:50;;;;;;;10.95;9.82;;;;;;;25.79;49.29;100836.13;4971410;28;20149;-66
2022/08/17 04:27:15;;;;;;;11.57;10.47;;;;;;;25.81;49.42;100844.78;4973739;28;20030;-71
2022/08/17 04:29:40;;;;;;;11.63;10.57;;;;;;;25.78;49.77;100842.47;4978590;28;20117;-70
2022/08/17 04:32:06;;;;;;;11.40;10.30;;;;;;;25.78;49.63;100856.63;4980281;28;20573;-67
2022/08/17 04:34:32;;;;;;;11.57;10.37;;;;;;;25.79;49.52;100869.00;4969304;28;20058;-71
2022/08/17 04:36:57;;;;;;;11.57;10.48;;;;;;;25.78;49.53;100882.50;4966071;28;20741;-66
2022/08/17 04:39:24;;;;;;;12.27;11.07;;;;;;;25.78;49.45;100896.69;4974128;28;20033;-70
2022/08/17 04:42:15;;;;;;;12.50;11.30;;;;;;;25.81;49.43;100884.84;4982348;28;20022;-66
2022/08/17 04:44:41;;;;;;;10.80;9.80;;;;;;;25.77;49.56;100891.50;4971593;28;20490;-67
2022/08/17 04:47:07;;;;;;;12.32;11.02;;;;;;;25.79;49.44;100882.34;4967347;28;20043;-66
2022/08/17 04:49:32;;;;;;;11.18;10.07;;;;;;;25.80;49.90;100892.03;4969262;28;20047;-66
2022/08/17 04:51:57;;;;;;;11.43;10.07;;;;;;;25.80;49.80;100888.50;4965857;28;20039;-68
2022/08/17 04:54:22;;;;;;;11.97;10.77;;;;;;;25.76;49.57;100880.00;4979499;28;20035;-71
2022/08/17 04:56:48;;;;;;;12.18;10.95;;;;;;;25.78;49.93;100902.03;4976034;28;20035;-67
2022/08/17 04:59:17;;;;;;;10.68;9.57;;;;;;;25.78;49.60;100877.16;4967065;28;20065;-70
2022/08/17 05:01:45;;;;;;;10.88;9.88;;;;;;;25.76;49.84;100865.84;4966563;28;20038;-67
2022/08/17 05:04:15;;;;;;;10.60;9.60;;;;;;;25.79;49.72;100876.19;4971865;28;20549;-66
2022/08/17 05:06:41;;;;;;;11.55;10.45;;;;;;;25.74;49.96;100866.03;4965496;28;20045;-68
2022/08/17 05:09:06;;;;;;;11.55;10.35;;;;;;;25.74;50.10;100863.34;4971554;28;20485;-67
2022/08/17 05:11:32;;;;;;;11.60;10.50;;;;;;;25.78;49.92;100863.81;4982592;28;20100;-67
2022/08/17 05:13:58;;;;;;;10.87;9.77;;;;;;;25.73;50.00;100858.19;4984677;28;20026;-69
2022/08/17 05:16:25;;;;;;;10.95;9.85;;;;;;;25.75;50.15;100862.31;4965298;28;20280;-71
2022/08/17 05:18:51;;;;;;;10.30;9.20;;;;;;;25.78;50.29;100869.16;4976971;28;20061;-67
2022/08/17 05:21:17;;;;;;;10.77;9.55;;;;;;;25.76;50.14;100868.53;4977001;28;20062;-67
2022/08/17 05:23:43;;;;;;;10.20;9.20;;;;;;;25.77;50.37;100873.69;4977429;28;20050;-68
2022/08/17 05:26:14;;;;;;;10.85;9.75;;;;;;;25.77;50.48;100872.84;4969277;28;20034;-69
2022/08/17 05:28:39;;;;;;;10.43;9.40;;;;;;;25.74;50.29;100860.69;4965278;28;20039;-70
2022/08/17 05:31:05;;;;;;;9.85;8.85;;;;;;;25.78;50.59;100866.50;4970247;28;20042;-67
2022/08/17 05:33:35;;;;;;;10.43;9.38;;;;;;;25.78;50.41;100864.66;4984676;28;20034;-66
2022/08/17 05:36:03;;;;;;;10.57;9.48;;;;;;;25.80;50.02;100860.00;4977366;28;20167;-67
2022/08/17 05:38:29;;;;;;;10.75;9.43;;;;;;;25.78;50.28;100855.81;4975212;28;20366;-67
2022/08/17 05:40:54;;;;;;;11.18;10.07;;;;;;;25.76;50.28;100853.31;4977416;28;20049;-67
2022/08/17 05:43:23;;;;;;;10.90;9.80;;;;;;;25.82;50.40;100857.97;4972116;28;20069;-66
2022/08/17 05:46:06;;;;;;;10.57;9.27;;;;;;;25.83;50.07;100864.13;4983984;28;20042;-67
2022/08/17 05:48:38;;;;;;;10.40;9.13;;;;;;;25.84;50.30;100857.78;4964697;28;20046;-66
2022/08/17 05:51:25;;;;;;;10.35;9.35;;;;;;;25.80;50.37;100856.47;4972545;28;20041;-68
2022/08/17 05:54:47;;;;;;;11.80;10.65;;;;;;;25.83;51.39;100864.13;4983429;28;20042;-66
2022/08/17 05:57:43;;;;;;;19.10;17.02;;;;;;;25.55;52.53;100863.75;4959333;28;20045;-68
2022/08/17 06:00:20;;;;;;;19.27;17.42;;;;;;;25.25;53.57;100876.84;4947990;28;20712;-68
2022/08/17 06:02:59;;;;;;;17.73;16.02;;;;;;;24.94;54.08;100870.44;4978202;28;20042;-68
2022/08/17 06:05:49;;;;;;;18.65;16.95;;;;;;;24.77;55.11;100874.13;4971207;28;20035;-69
2022/08/17 06:08:51;;;;;;;19.80;17.80;;;;;;;24.57;55.82;100878.94;4963053;28;20507;-68
2022/08/17 06:11:29;;;;;;;20.23;18.15;;;;;;;24.41;56.39;100880.56;4975417;28;20038;-69
2022/08/17 06:14:02;;;;;;;19.55;17.55;;;;;;;24.25;57.13;100869.91;4964220;28;20375;-70
2022/08/17 06:16:36;;;;;;;19.30;17.40;;;;;;;24.07;57.46;100862.06;4969310;28;20046;-70
2022/08/17 06:19:10;;;;;;;20.52;18.27;;;;;;;24.07;57.27;100872.72;4971647;28;20037;-71
2022/08/17 06:21:39;;;;;;;19.27;17.27;;;;;;;23.97;58.13;100872.00;4982665;28;20031;-68
2022/08/17 06:24:20;;;;;;;19.67;17.73;;;;;;;23.91;58.35;100878.84;4963952;28;20054;-70
2022/08/17 06:26:46;;;;;;;19.85;17.85;;;;;;;23.86;58.12;100881.97;4973920;28;20057;-69
2022/08/17 06:29:43;;;;;;;20.58;18.35;;;;;;;23.85;58.64;100895.44;4998083;28;20392;-68
2022/08/17 06:32:11;;;;;;;19.90;18.05;;;;;;;23.80;58.74;100895.88;4971089;28;20030;-68
2022/08/17 06:34:37;;;;;;;19.60;17.63;;;;;;;23.73;58.96;100897.50;4978684;28;20357;-70
2022/08/17 06:37:20;;;;;;;20.52;18.50;;;;;;;23.74;59.14;100909.84;4972427;28;20383;-69
2022/08/17 06:40:14;;;;;;;19.30;17.27;;;;;;;23.72;58.69;100915.31;4980053;28;20458;-69
2022/08/17 06:43:25;;;;;;;17.20;15.50;;;;;;;23.70;58.68;100908.47;4977377;28;20030;-67
2022/08/17 06:46:02;;;;;;;17.45;15.68;;;;;;;23.64;58.88;100898.47;4966317;28;20080;-70
2022/08/17 06:48:42;;;;;;;15.63;14.20;;;;;;;23.62;58.78;100903.94;4982616;28;20046;-69
2022/08/17 06:51:20;;;;;;;16.55;14.95;;;;;;;23.61;58.47;100912.13;4979924;28;20350;-67
2022/08/17 06:54:44;;;;;;;16.95;15.32;;;;;;;23.60;58.40;100918.41;4982567;28;20033;-68
2022/08/17 06:57:27;;;;;;;16.25;14.63;;;;;;;23.58;59.27;100923.91;4946467;28;20042;-67
2022/08/17 07:00:16;;;;;;;16.25;14.52;;;;;;;23.54;59.09;100925.19;4977257;28;20542;-70
2022/08/17 07:02:55;;;;;;;16.90;13.55;;;;;;;23.53;59.00;100928.88;4982715;28;20028;-69
2022/08/17 07:05:30;;;;;;;16.13;13.98;;;;;;;23.50;58.69;100916.72;4974073;28;20034;-69
2022/08/17 07:08:03;;;;;;;16.38;14.68;;;;;;;23.48;58.70;100932.00;4982448;28;20037;-69
2022/08/17 07:10:35;;;;;;;15.55;14.05;;;;;;;23.51;58.58;100939.66;4962994;28;20066;-68
2022/08/17 07:13:36;;;;;;;14.82;13.30;;;;;;;23.49;58.83;100944.28;4964023;28;20054;-69
2022/08/17 07:16:29;;;;;;;15.30;12.05;;;;;;;23.46;59.17;100941.94;4966159;28;20027;-69
2022/08/17 07:18:56;;;;;;;14.43;13.02;;;;;;;23.45;59.17;100936.78;4958625;28;20110;-71
2022/08/17 07:21:37;;;;;;;14.82;13.32;;;;;;;23.41;59.02;100938.94;4963288;28;20045;-69
2022/08/17 07:24:57;;;;;;;14.60;12.98;;;;;;;23.46;59.30;100941.13;4967907;28;20050;-67
2022/08/17 07:27:26;;;;;;;14.43;13.02;;;;;;;23.45;59.33;100942.94;4949398;28;20054;-70
2022/08/17 07:29:56;;;;;;;14.38;12.98;;;;;;;23.44;59.44;100943.94;4978961;28;20467;-72
2022/08/17 07:32:26;;;;;;;14.43;13.02;;;;;;;23.39;59.60;100943.56;4971659;28;20034;-71
2022/08/17 07:35:22;;;;;;;14.85;12.98;;;;;;;23.34;59.59;100943.22;4973238;28;20713;-75
2022/08/17 07:38:06;;;;;;;13.38;12.00;;;;;;;23.36;59.66;100951.88;4976863;28;20042;-76
2022/08/17 07:40:38;;;;;;;13.07;11.80;;;;;;;23.33;60.00;100946.84;4969557;28;20038;-72
2022/08/17 07:43:14;;;;;;;14.13;12.60;;;;;;;23.40;59.89;100955.91;4965613;28;20027;-74
2022/08/17 07:48:37;;;;;;;14.13;11.95;;;;;;;23.42;59.79;100961.06;4962443;28;20049;-70
2022/08/17 07:51:30;;;;;;;11.93;10.63;;;;;;;23.49;59.08;100956.75;4978810;28;20049;-67
2022/08/17 07:54:01;;;;;;;13.30;8.98;;;;;;;23.73;58.75;100961.38;4970683;28;20378;-68
2022/08/17 07:56:35;;;;;;;8.77;7.75;;;;;;;23.88;58.01;100951.84;4963536;28;20041;-68
2022/08/17 07:59:18;;;;;;;8.60;7.63;;;;;;;24.14;57.07;100953.59;4979893;28;20038;-70
2022/08/17 08:01:55;;;;;;;8.77;7.10;;;;;;;24.32;56.34;100953.44;4981430;28;20424;-72
2022/08/17 08:04:40;;;;;;;7.63;6.82;;;;;;;24.50;55.92;100958.66;4970986;28;20412;-68
2022/08/17 08:07:33;;;;;;;8.25;6.97;;;;;;;24.65;55.42;100960.72;4966371;28;20029;-69
2022/08/17 08:10:10;;;;;;;7.18;6.20;;;;;;;24.78;54.59;100966.38;4975777;28;20053;-70
2022/08/17 08:12:59;;;;;;;7.45;6.60;;;;;;;24.90;54.24;100959.72;4966386;28;20070;-68
2022/08/17 08:15:39;;;;;;;8.23;6.60;;;;;;;24.99;54.03;100957.88;4970541;28;20060;-68
2022/08/17 08:18:20;;;;;;;6.75;5.97;;;;;;;25.11;53.78;100961.88;4966573;28;20042;-68
2022/08/17 08:20:50;;;;;;;7.22;6.35;;;;;;;25.17;53.29;100961.19;4966247;28;20039;-67
2022/08/17 08:23:24;;;;;;;7.45;6.38;;;;;;;25.23;53.39;100951.69;4975243;28;20132;-67
2022/08/17 08:26:10;;;;;;;6.47;5.80;;;;;;;25.26;52.89;100947.84;4970810;28;20035;-71
2022/08/17 08:29:00;;;;;;;7.70;6.32;;;;;;;25.35;52.82;100946.88;4971944;28;20410;-68
2022/08/17 08:31:56;;;;;;;8.43;6.22;;;;;;;25.40;52.75;100939.19;4970581;28;20026;-68
2022/08/17 08:35:09;;;;;;;7.05;5.80;;;;;;;25.44;52.38;100942.34;4970528;28;20112;-68
2022/08/17 08:37:39;;;;;;;6.88;5.45;;;;;;;25.48;52.04;100943.66;4948962;28;20053;-67
2022/08/17 08:40:19;;;;;;;7.60;6.35;;;;;;;25.53;52.48;100944.81;4985334;28;20535;-66
2022/08/17 08:42:55;;;;;;;6.50;5.63;;;;;;;25.52;51.90;100947.66;4977818;28;20042;-70
2022/08/17 08:45:30;;;;;;;7.82;5.90;;;;;;;25.54;52.21;100956.31;4983158;28;20077;-69
2022/08/17 08:48:14;;;;;;;7.57;6.25;;;;;;;25.61;51.97;100977.81;4956006;28;20039;-69
2022/08/17 08:50:53;;;;;;;7.38;6.07;;;;;;;25.61;51.92;100980.47;4979257;28;20149;-67
2022/08/17 08:53:35;;;;;;;6.35;5.43;;;;;;;25.58;51.65;100979.00;4985274;28;20048;-67
2022/08/17 08:56:15;;;;;;;8.10;6.25;;;;;;;25.65;51.54;100987.16;4984691;28;20038;-66
2022/08/17 08:59:04;;;;;;;6.65;5.40;;;;;;;25.67;51.66;100988.63;4977954;28;20047;-67
2022/08/17 09:01:35;;;;;;;6.32;5.35;;;;;;;25.71;51.68;100986.47;4984317;28;20038;-68
2022/08/17 09:04:23;;;;;;;6.45;5.75;;;;;;;25.71;51.42;100987.28;4983468;28;20386;-67
2022/08/17 09:06:52;;;;;;;6.50;5.70;;;;;;;25.75;51.32;100978.94;4981630;28;20210;-66
2022/08/17 09:09:41;;;;;;;7.18;6.03;;;;;;;25.67;51.42;100969.13;4975673;28;20498;-68
2022/08/17 09:12:50;;;;;;;7.80;6.03;;;;;;;25.70;51.53;100974.13;4964323;28;20070;-66
2022/08/17 09:15:26;;;;;;;7.72;6.00;;;;;;;25.70;51.36;100985.63;4965476;28;20126;-67
2022/08/17 09:17:59;;;;;;;6.68;5.68;;;;;;;25.68;51.20;100982.28;4983837;28;20030;-67
2022/08/17 09:20:42;;;;;;;7.13;6.43;;;;;;;25.71;51.23;100984.63;4972876;28;20121;-66
2022/08/17 09:23:18;;;;;;;6.90;5.85;;;;;;;25.75;51.25;100986.94;4965095;28;20332;-68
2022/08/17 09:26:09;;;;;;;8.52;6.28;;;;;;;25.77;51.29;100991.13;4985267;28;20066;-67
2022/08/17 09:28:36;;;;;;;6.57;5.88;;;;;;;25.76;51.16;100991.28;4973462;28;21408;-71
2022/08/17 09:31:14;;;;;;;7.22;6.40;;;;;;;25.77;51.16;100998.28;4972466;28;20151;-68
2022/08/17 09:33:44;;;;;;;6.30;5.70;;;;;;;25.78;51.04;101013.31;4975757;28;20363;-71
2022/08/17 09:36:26;;;;;;;7.07;6.10;;;;;;;25.78;51.24;101026.66;4979975;28;20038;-67
2022/08/17 09:39:00;;;;;;;7.40;6.10;;;;;;;25.77;51.32;101030.31;4970242;28;20420;-68
2022/08/17 09:41:43;;;;;;;7.60;6.35;;;;;;;25.79;51.35;101039.81;4982644;28;20462;-68
2022/08/17 09:44:25;;;;;;;7.15;5.90;;;;;;;25.82;51.35;101058.16;4972290;28;20096;-67
2022/08/17 09:47:32;;;;;;;9.38;6.72;;;;;;;25.86;51.52;101075.50;4980611;28;20059;-68
2022/08/17 09:50:13;;;;;;;6.30;5.57;;;;;;;25.84;51.47;101082.03;4934892;29;20056;-67
2022/08/17 09:52:40;;;;;;;6.85;6.03;;;;;;;25.83;51.28;101080.34;4939246;29;20043;-67
2022/08/17 09:55:06;;;;;;;6.80;6.07;;;;;;;25.85;51.24;101079.19;4958493;28;20043;-67
2022/08/17 09:57:59;;;;;;;7.20;6.30;;;;;;;25.88;51.31;101081.53;4980466;28;20178;-66
2022/08/17 10:00:33;;;;;;;7.38;6.45;;;;;;;25.88;51.59;101054.81;4983262;28;20031;-67
2022/08/17 10:03:20;;;;;;;8.13;6.32;;;;;;;25.87;51.71;101041.66;4972749;28;20031;-67
2022/08/17 10:05:51;;;;;;;8.25;6.60;;;;;;;25.87;51.85;101046.97;4982869;28;20030;-67
2022/08/17 10:08:26;;;;;;;7.38;6.68;;;;;;;25.86;52.13;101048.81;4978960;28;20041;-66
2022/08/17 10:14:23;;;;;;;6.75;6.00;;;;;;;25.83;52.08;101048.31;4977888;28;20117;-68
2022/08/17 10:16:59;;;;;;;7.20;6.30;;;;;;;25.86;52.40;101053.31;4968240;28;20035;-68
2022/08/17 10:19:39;;;;;;;7.25;6.50;;;;;;;25.77;52.25;101033.84;4967706;28;20062;-70
2022/08/17 10:28:14;;;;;;;7.70;6.40;;;;;;;25.81;52.87;101045.81;4970810;28;20045;-69
2022/08/17 10:30:47;;;;;;;7.47;6.00;;;;;;;25.78;52.87;101046.16;4965470;28;20120;-67
2022/08/17 10:33:26;;;;;;;8.00;6.47;;;;;;;25.76;52.81;101042.84;4972080;28;20039;-67
2022/08/17 10:36:05;;;;;;;7.82;6.47;;;;;;;25.80;52.97;101048.66;4973133;28;20023;-69
2022/08/17 10:38:44;;;;;;;9.07;6.40;;;;;;;25.80;52.89;101044.16;4968694;28;20114;-67
2022/08/17 10:41:32;;;;;;;8.10;6.93;;;;;;;25.80;53.34;101044.16;4977118;28;20226;-67
2022/08/17 10:44:07;;;;;;;7.97;6.97;;;;;;;25.81;52.94;101031.66;4963902;28;20034;-67
2022/08/17 10:47:01;;;;;;;7.63;6.50;;;;;;;25.80;53.19;101024.63;4967988;28;20031;-66
2022/08/17 10:49:31;;;;;;;7.25;6.55;;;;;;;25.79;53.09;101015.81;4980623;28;20038;-68
2022/08/17 10:52:05;;;;;;;8.77;6.70;;;;;;;25.78;53.33;101013.31;4963831;28;20198;-67
2022/08/17 10:54:37;;;;;;;7.03;6.28;;;;;;;25.81;53.39;101010.28;4976781;28;20113;-67
2022/08/17 10:57:28;;;;;;;8.20;6.45;;;;;;;25.80;53.39;101006.81;4968963;28;20047;-69
2022/08/17 10:59:54;;;;;;;7.25;6.43;;;;;;;25.80;53.51;100997.94;4980287;28;20052;-67
2022/08/17 11:02:53;;;;;;;8.57;6.40;;;;;;;25.79;53.39;101001.63;4972879;28;20482;-71
2022/08/17 11:05:29;;;;;;;7.78;6.30;;;;;;;25.76;53.28;100999.31;4973624;28;20030;-67
2022/08/17 11:08:18;;;;;;;8.15;6.20;;;;;;;25.81;53.63;101013.78;4971182;28;20045;-66
2022/08/17 11:11:05;;;;;;;8.30;6.60;;;;;;;25.80;53.67;101004.13;4973424;28;20035;-68
2022/08/17 11:13:48;;;;;;;7.97;6.57;;;;;;;25.79;53.60;101007.78;4976889;28;20026;-71
2022/08/17 11:16:32;;;;;;;7.90;6.20;;;;;;;25.75;53.70;101006.47;4970816;28;20031;-67
2022/08/17 11:19:09;;;;;;;7.85;6.40;;;;;;;25.79;53.72;101017.66;4963345;28;20031;-67
2022/08/17 11:21:38;;;;;;;7.63;6.38;;;;;;;25.78;53.55;101022.13;4980036;28;20065;-67
2022/08/17 11:24:36;;;;;;;7.45;6.60;;;;;;;25.73;53.86;101019.16;4969380;28;20142;-71
2022/08/17 11:27:24;;;;;;;9.13;6.60;;;;;;;25.75;53.99;101032.31;4969998;28;20031;-68
2022/08/17 11:30:06;;;;;;;7.95;6.50;;;;;;;25.74;53.82;101041.31;4967112;28;20027;-67
2022/08/17 11:32:42;;;;;;;8.93;6.90;;;;;;;25.73;54.23;101050.34;4970252;28;20877;-67
2022/08/17 11:35:19;;;;;;;8.35;6.40;;;;;;;25.75;53.93;101061.69;4977819;28;20038;-67
2022/08/17 11:38:24;;;;;;;7.80;6.53;;;;;;;25.74;53.83;101066.19;4965434;28;20053;-68
2022/08/17 11:40:52;;;;;;;7.45;6.65;;;;;;;25.75;54.05;101075.03;4962630;28;20023;-72
2022/08/17 11:43:35;;;;;;;7.15;6.30;;;;;;;25.74;54.25;101068.03;4974869;28;20125;-68
2022/08/17 11:46:03;;;;;;;7.00;6.22;;;;;;;25.73;54.08;101072.53;4976304;28;20046;-64
2022/08/17 11:52:10;;;;;;;8.02;6.35;;;;;;;25.54;54.40;101081.72;4970333;28;20053;-74
2022/08/17 11:54:45;;;;;;;11.20;9.95;;;;;;;25.41;58.26;101079.56;4975200;28;20037;-73
2022/08/17 11:57:25;;;;;;;13.77;12.48;;;;;;;25.22;61.09;101096.72;4964229;28;20142;-70
2022/08/17 12:00:06;;;;;;;13.95;12.60;;;;;;;25.01;61.97;101093.66;4962113;28;20034;-73
2022/08/17 12:02:37;;;;;;;14.93;13.32;;;;;;;24.78;63.29;101092.50;4973389;28;20030;-72
2022/08/17 12:05:21;;;;;;;15.15;13.55;;;;;;;24.61;63.89;101096.09;4967391;28;20070;-72
2022/08/17 12:07:51;;;;;;;14.73;13.20;;;;;;;24.45;63.32;101100.34;4966134;28;20027;-72
2022/08/17 12:10:30;;;;;;;15.77;14.20;;;;;;;24.36;64.79;101097.81;4973850;28;20035;-74
2022/08/17 12:12:56;;;;;;;16.00;14.40;;;;;;;24.26;65.37;101097.94;4977794;28;20117;-73
2022/08/17 12:15:30;;;;;;;15.25;13.77;;;;;;;24.19;64.39;101104.88;4971170;28;20100;-72